PWSweather.com
Personal Weather Stations
Station Observations
MACKBIG
Historic Main Street, Unionville, ON L3R6A5

Historic Main StreetUnionville, ON L3R6A5

Lat: 43.875506, Lon: -79.312903

Elevation: 590

Station Type: Davis VP2 + 6163

http://www.mackweather.com

Latest ConditionsUpdated 4:30:09 PM EDT Saturday, Jul 30, 2016
Currently Today's Max Today's Min Today's Average
Temperature 81.5°F27.5°C 81.8°F27.7°C 65.4°F18.6°C 71.2°F21.8°C
Dew Point 58.8°F14.9°C 61.6°F16.4°C 54.8°F12.7°C 57.4°F14.1°C
Winds 2.0 mph ESE3.2 kmh ESE 8.0 mph ESE12.9 kmh ESE - 2.5 mph 4.0 kmh
Wind Gusts 3.0 mph4.8 kmh 13.0 mph20.9 kmh - -
Humidity 46% 70% 46% 62%
Pressure 29.96 in1014.6 mb 30.02 in1016.6 mb 29.96 in1014.6 mb -
Hour Temp Dew Point Humidity Winds Wind Gusts Pressure Precip Precip Rate Daily Precip Total
04:30 PM 81.5°F27.5°C 58.8°F14.9°C 46% 2.0 mph ESE3.2 kmh ESE 3.0 mph4.8 kmh 29.96 in1014.6 mb - 0.00 in0.0 mm 0.00 in0.0 mm
04:20 PM 81.6°F27.6°C 60.6°F15.9°C 49% 7.0 mph SE11.3 kmh SE 12.0 mph19.3 kmh 29.97 in1014.9 mb - 0.00 in0.0 mm 0.00 in0.0 mm
04:10 PM 81.6°F27.6°C 60.1°F15.6°C 48% 5.0 mph SSE8.0 kmh SSE 10.0 mph16.1 kmh 29.96 in1014.6 mb - 0.00 in0.0 mm 0.00 in0.0 mm
04:00 PM 81.7°F27.6°C 60.7°F15.9°C 49% 6.0 mph ESE9.7 kmh ESE 13.0 mph20.9 kmh 29.97 in1014.9 mb - 0.00 in0.0 mm 0.00 in0.0 mm
03:50 PM 81.6°F27.6°C 60.6°F15.9°C 49% 3.0 mph SE4.8 kmh SE 7.0 mph11.3 kmh 29.97 in1014.9 mb - 0.00 in0.0 mm 0.00 in0.0 mm
03:40 PM 81.8°F27.7°C 60.2°F15.7°C 48% 7.0 mph SE11.3 kmh SE 9.0 mph14.5 kmh 29.97 in1014.9 mb - 0.00 in0.0 mm 0.00 in0.0 mm
03:30 PM 81.6°F27.6°C 60.0°F15.6°C 48% 3.0 mph SE4.8 kmh SE 8.0 mph12.9 kmh 29.97 in1014.9 mb - 0.00 in0.0 mm 0.00 in0.0 mm
03:20 PM 81.5°F27.5°C 60.5°F15.8°C 49% 6.0 mph E9.7 kmh E 6.0 mph9.7 kmh 29.97 in1014.9 mb - 0.00 in0.0 mm 0.00 in0.0 mm
03:10 PM 81.3°F27.4°C 60.9°F16.1°C 50% 7.0 mph ESE11.3 kmh ESE 9.0 mph14.5 kmh 29.97 in1014.9 mb - 0.00 in0.0 mm 0.00 in0.0 mm
03:00 PM 80.9°F27.2°C 60.5°F15.8°C 50% 2.0 mph ESE3.2 kmh ESE 3.0 mph4.8 kmh 29.98 in1015.2 mb - 0.00 in0.0 mm 0.00 in0.0 mm
02:50 PM 80.0°F26.7°C 60.8°F16.0°C 52% 2.0 mph SSE3.2 kmh SSE 3.0 mph4.8 kmh 29.98 in1015.2 mb - 0.00 in0.0 mm 0.00 in0.0 mm
02:40 PM 79.2°F26.2°C 61.1°F16.2°C 54% 5.0 mph SE8.0 kmh SE 13.0 mph20.9 kmh 29.98 in1015.2 mb - 0.00 in0.0 mm 0.00 in0.0 mm
02:30 PM 79.3°F26.3°C 60.7°F15.9°C 53% 5.0 mph SE8.0 kmh SE 8.0 mph12.9 kmh 29.99 in1015.6 mb - 0.00 in0.0 mm 0.00 in0.0 mm
02:20 PM 79.4°F26.3°C 60.8°F16.0°C 53% 3.0 mph S4.8 kmh S 7.0 mph11.3 kmh 29.98 in1015.2 mb - 0.00 in0.0 mm 0.00 in0.0 mm
02:10 PM 79.7°F26.5°C 60.6°F15.9°C 52% 7.0 mph E11.3 kmh E 8.0 mph12.9 kmh 29.98 in1015.2 mb - 0.00 in0.0 mm 0.00 in0.0 mm
02:00 PM 80.8°F27.1°C 61.0°F16.1°C 51% 7.0 mph SE11.3 kmh SE 9.0 mph14.5 kmh 29.99 in1015.6 mb - 0.00 in0.0 mm 0.00 in0.0 mm
01:50 PM 80.4°F26.9°C 61.2°F16.2°C 52% 3.0 mph E4.8 kmh E 6.0 mph9.7 kmh 29.99 in1015.6 mb - 0.00 in0.0 mm 0.00 in0.0 mm
01:40 PM 80.3°F26.8°C 61.6°F16.4°C 53% 5.0 mph E8.0 kmh E 8.0 mph12.9 kmh 29.99 in1015.6 mb - 0.00 in0.0 mm 0.00 in0.0 mm
01:30 PM 79.5°F26.4°C 60.9°F16.1°C 53% Calm Calm 5.0 mph8.0 kmh 29.99 in1015.6 mb - 0.00 in0.0 mm 0.00 in0.0 mm
01:20 PM 78.9°F26.1°C 60.9°F16.1°C 54% 2.0 mph E3.2 kmh E 6.0 mph9.7 kmh 30.00 in1015.9 mb - 0.00 in0.0 mm 0.00 in0.0 mm
01:10 PM 77.1°F25.1°C 60.7°F15.9°C 57% 2.0 mph ENE3.2 kmh ENE 6.0 mph9.7 kmh 29.99 in1015.6 mb - 0.00 in0.0 mm 0.00 in0.0 mm
01:00 PM 76.4°F24.7°C 59.6°F15.3°C 56% 3.0 mph SE4.8 kmh SE 9.0 mph14.5 kmh 29.99 in1015.6 mb - 0.00 in0.0 mm 0.00 in0.0 mm
12:50 PM 76.4°F24.7°C 59.6°F15.3°C 56% 5.0 mph E8.0 kmh E 8.0 mph12.9 kmh 30.00 in1015.9 mb - 0.00 in0.0 mm 0.00 in0.0 mm
12:40 PM 76.7°F24.8°C 59.3°F15.2°C 55% 7.0 mph SE11.3 kmh SE 12.0 mph19.3 kmh 30.00 in1015.9 mb - 0.00 in0.0 mm 0.00 in0.0 mm
12:30 PM 77.3°F25.2°C 59.3°F15.2°C 54% 3.0 mph E4.8 kmh E 6.0 mph9.7 kmh 30.00 in1015.9 mb - 0.00 in0.0 mm 0.00 in0.0 mm
12:20 PM 77.8°F25.4°C 59.8°F15.4°C 54% 7.0 mph E11.3 kmh E 10.0 mph16.1 kmh 30.00 in1015.9 mb - 0.00 in0.0 mm 0.00 in0.0 mm
12:10 PM 77.3°F25.2°C 59.9°F15.5°C 55% 7.0 mph ENE11.3 kmh ENE 10.0 mph16.1 kmh 30.01 in1016.3 mb - 0.00 in0.0 mm 0.00 in0.0 mm
12:00 PM 76.4°F24.7°C 60.1°F15.6°C 57% 8.0 mph E12.9 kmh E 13.0 mph20.9 kmh 30.01 in1016.3 mb - 0.00 in0.0 mm 0.00 in0.0 mm
11:50 AM 74.6°F23.7°C 59.8°F15.4°C 60% 5.0 mph ENE8.0 kmh ENE 12.0 mph19.3 kmh 30.01 in1016.3 mb - 0.00 in0.0 mm 0.00 in0.0 mm
11:40 AM 73.5°F23.1°C 58.8°F14.9°C 60% 3.0 mph ESE4.8 kmh ESE 8.0 mph12.9 kmh 30.01 in1016.3 mb - 0.00 in0.0 mm 0.00 in0.0 mm
11:30 AM 73.1°F22.8°C 59.3°F15.2°C 62% 2.0 mph NE3.2 kmh NE 10.0 mph16.1 kmh 30.01 in1016.3 mb - 0.00 in0.0 mm 0.00 in0.0 mm
11:20 AM 72.5°F22.5°C 58.3°F14.6°C 61% 1.0 mph ESE1.6 kmh ESE 13.0 mph20.9 kmh 30.01 in1016.3 mb - 0.00 in0.0 mm 0.00 in0.0 mm
11:10 AM 72.2°F22.3°C 57.5°F14.2°C 60% 2.0 mph E3.2 kmh E 9.0 mph14.5 kmh 30.01 in1016.3 mb - 0.00 in0.0 mm 0.00 in0.0 mm
11:00 AM 72.3°F22.4°C 57.2°F14.0°C 59% 6.0 mph E9.7 kmh E 13.0 mph20.9 kmh 30.01 in1016.3 mb - 0.00 in0.0 mm 0.00 in0.0 mm
10:50 AM 72.0°F22.2°C 57.8°F14.3°C 61% 8.0 mph ESE12.9 kmh ESE 12.0 mph19.3 kmh 30.01 in1016.3 mb - 0.00 in0.0 mm 0.00 in0.0 mm
10:40 AM 71.4°F21.9°C 57.7°F14.3°C 62% 3.0 mph E4.8 kmh E 6.0 mph9.7 kmh 30.01 in1016.3 mb - 0.00 in0.0 mm 0.00 in0.0 mm
10:30 AM 71.2°F21.8°C 57.5°F14.2°C 62% 3.0 mph E4.8 kmh E 9.0 mph14.5 kmh 30.01 in1016.3 mb - 0.00 in0.0 mm 0.00 in0.0 mm
10:20 AM 70.8°F21.6°C 58.0°F14.4°C 64% 2.0 mph ESE3.2 kmh ESE 3.0 mph4.8 kmh 30.01 in1016.3 mb - 0.00 in0.0 mm 0.00 in0.0 mm
10:10 AM 70.2°F21.2°C 57.5°F14.2°C 64% 5.0 mph E8.0 kmh E 8.0 mph12.9 kmh 30.01 in1016.3 mb - 0.00 in0.0 mm 0.00 in0.0 mm
10:00 AM 69.6°F20.9°C 56.9°F13.8°C 64% 6.0 mph E9.7 kmh E 8.0 mph12.9 kmh 30.01 in1016.3 mb - 0.00 in0.0 mm 0.00 in0.0 mm
09:50 AM 68.7°F20.4°C 57.3°F14.1°C 67% 6.0 mph E9.7 kmh E 12.0 mph19.3 kmh 30.01 in1016.3 mb - 0.00 in0.0 mm 0.00 in0.0 mm
09:40 AM 67.9°F19.9°C 56.9°F13.8°C 68% 2.0 mph E3.2 kmh E 7.0 mph11.3 kmh 30.01 in1016.3 mb - 0.00 in0.0 mm 0.00 in0.0 mm
09:30 AM 67.4°F19.7°C 56.4°F13.6°C 68% 3.0 mph E4.8 kmh E 7.0 mph11.3 kmh 30.01 in1016.3 mb - 0.00 in0.0 mm 0.00 in0.0 mm
09:20 AM 67.1°F19.5°C 56.2°F13.4°C 68% 2.0 mph NE3.2 kmh NE 7.0 mph11.3 kmh 30.02 in1016.6 mb - 0.00 in0.0 mm 0.00 in0.0 mm
09:10 AM 66.9°F19.4°C 56.0°F13.3°C 68% 3.0 mph E4.8 kmh E 10.0 mph16.1 kmh 30.01 in1016.3 mb - 0.00 in0.0 mm 0.00 in0.0 mm
09:00 AM 66.8°F19.3°C 55.9°F13.3°C 68% 2.0 mph E3.2 kmh E 8.0 mph12.9 kmh 30.01 in1016.3 mb - 0.00 in0.0 mm 0.00 in0.0 mm
08:50 AM 66.6°F19.2°C 55.7°F13.2°C 68% 2.0 mph ENE3.2 kmh ENE 7.0 mph11.3 kmh 30.01 in1016.3 mb - 0.00 in0.0 mm 0.00 in0.0 mm
08:40 AM 66.5°F19.2°C 56.0°F13.3°C 69% 2.0 mph NE3.2 kmh NE 7.0 mph11.3 kmh 30.01 in1016.3 mb - 0.00 in0.0 mm 0.00 in0.0 mm
08:30 AM 66.3°F19.1°C 55.4°F13.0°C 68% Calm Calm 7.0 mph11.3 kmh 30.01 in1016.3 mb - 0.00 in0.0 mm 0.00 in0.0 mm
08:20 AM 66.2°F19.0°C 55.3°F12.9°C 68% 1.0 mph E1.6 kmh E -- 30.01 in1016.3 mb - 0.00 in0.0 mm 0.00 in0.0 mm
08:10 AM 66.1°F18.9°C 55.2°F12.9°C 68% 3.0 mph E4.8 kmh E 9.0 mph14.5 kmh 30.01 in1016.3 mb - 0.00 in0.0 mm 0.00 in0.0 mm
08:00 AM 66.1°F18.9°C 55.6°F13.1°C 69% 1.0 mph ENE1.6 kmh ENE 6.0 mph9.7 kmh 30.01 in1016.3 mb - 0.00 in0.0 mm 0.00 in0.0 mm
07:50 AM 65.9°F18.8°C 55.5°F13.1°C 69% 3.0 mph NE4.8 kmh NE 6.0 mph9.7 kmh 30.00 in1015.9 mb - 0.00 in0.0 mm 0.00 in0.0 mm
07:40 AM 65.8°F18.8°C 55.3°F12.9°C 69% 1.0 mph ENE1.6 kmh ENE 3.0 mph4.8 kmh 30.00 in1015.9 mb - 0.00 in0.0 mm 0.00 in0.0 mm
07:30 AM 65.7°F18.7°C 55.2°F12.9°C 69% 1.0 mph E1.6 kmh E 5.0 mph8.0 kmh 30.01 in1016.3 mb - 0.00 in0.0 mm 0.00 in0.0 mm
07:20 AM 65.7°F18.7°C 55.6°F13.1°C 70% Calm Calm 5.0 mph8.0 kmh 30.01 in1016.3 mb - 0.00 in0.0 mm 0.00 in0.0 mm
07:10 AM 65.6°F18.7°C 55.5°F13.1°C 70% Calm Calm -- 30.01 in1016.3 mb - 0.00 in0.0 mm 0.00 in0.0 mm
07:00 AM 65.4°F18.6°C 55.0°F12.8°C 69% Calm Calm -- 30.00 in1015.9 mb - 0.00 in0.0 mm 0.00 in0.0 mm
06:50 AM 65.5°F18.6°C 55.1°F12.8°C 69% 1.0 mph E1.6 kmh E 1.0 mph1.6 kmh 29.99 in1015.6 mb - 0.00 in0.0 mm 0.00 in0.0 mm
06:40 AM 65.5°F18.6°C 55.1°F12.8°C 69% Calm Calm -- 29.99 in1015.6 mb - 0.00 in0.0 mm 0.00 in0.0 mm
06:30 AM 65.6°F18.7°C 55.2°F12.9°C 69% 2.0 mph E3.2 kmh E 6.0 mph9.7 kmh 29.98 in1015.2 mb - 0.00 in0.0 mm 0.00 in0.0 mm
06:20 AM 65.6°F18.7°C 54.8°F12.7°C 68% 1.0 mph E1.6 kmh E 6.0 mph9.7 kmh 29.98 in1015.2 mb 0.00 in0.0 mm 0.00 in0.0 mm 0.00 in0.0 mm
06:10 AM 65.8°F18.8°C 54.9°F12.7°C 68% Calm Calm -- 29.98 in1015.2 mb 0.00 in0.0 mm 0.00 in0.0 mm 0.00 in0.0 mm
06:00 AM 65.9°F18.8°C 55.0°F12.8°C 68% 1.0 mph E1.6 kmh E 3.0 mph4.8 kmh 29.98 in1015.2 mb 0.00 in0.0 mm 0.00 in0.0 mm 0.00 in0.0 mm
05:50 AM 66.1°F18.9°C 54.8°F12.7°C 67% 1.0 mph E1.6 kmh E 2.0 mph3.2 kmh 29.98 in1015.2 mb 0.00 in0.0 mm 0.00 in0.0 mm 0.00 in0.0 mm
05:40 AM 66.3°F19.1°C 55.4°F13.0°C 68% Calm Calm -- 29.97 in1014.9 mb 0.00 in0.0 mm 0.00 in0.0 mm 0.00 in0.0 mm
05:30 AM 66.3°F19.1°C 55.0°F12.8°C 67% 1.0 mph E1.6 kmh E 6.0 mph9.7 kmh 29.97 in1014.9 mb 0.00 in0.0 mm 0.00 in0.0 mm 0.00 in0.0 mm
05:20 AM 66.4°F19.1°C 55.1°F12.8°C 67% Calm Calm -- 29.97 in1014.9 mb 0.00 in0.0 mm 0.00 in0.0 mm 0.00 in0.0 mm
05:10 AM 66.4°F19.1°C 55.1°F12.8°C 67% Calm Calm 3.0 mph4.8 kmh 29.97 in1014.9 mb 0.00 in0.0 mm 0.00 in0.0 mm 0.00 in0.0 mm
05:00 AM 66.5°F19.2°C 55.2°F12.9°C 67% Calm Calm -- 29.98 in1015.2 mb 0.00 in0.0 mm 0.00 in0.0 mm 0.00 in0.0 mm
04:50 AM 66.6°F19.2°C 55.3°F12.9°C 67% Calm Calm -- 29.98 in1015.2 mb 0.00 in0.0 mm 0.00 in0.0 mm 0.00 in0.0 mm
04:40 AM 66.6°F19.2°C 55.3°F12.9°C 67% Calm Calm -- 29.98 in1015.2 mb 0.00 in0.0 mm 0.00 in0.0 mm 0.00 in0.0 mm
04:30 AM 66.7°F19.3°C 55.4°F13.0°C 67% Calm Calm -- 29.97 in1014.9 mb 0.00 in0.0 mm 0.00 in0.0 mm 0.00 in0.0 mm
04:20 AM 66.7°F19.3°C 55.4°F13.0°C 67% 3.0 mph E4.8 kmh E 5.0 mph8.0 kmh 29.97 in1014.9 mb 0.00 in0.0 mm 0.00 in0.0 mm 0.00 in0.0 mm
04:10 AM 66.8°F19.3°C 55.1°F12.8°C 66% 2.0 mph ENE3.2 kmh ENE 3.0 mph4.8 kmh 29.97 in1014.9 mb 0.00 in0.0 mm 0.00 in0.0 mm 0.00 in0.0 mm
04:00 AM 67.0°F19.4°C 55.3°F12.9°C 66% 1.0 mph ENE1.6 kmh ENE 6.0 mph9.7 kmh 29.97 in1014.9 mb 0.00 in0.0 mm 0.00 in0.0 mm 0.00 in0.0 mm
03:50 AM 67.0°F19.4°C 55.3°F12.9°C 66% Calm Calm -- 29.98 in1015.2 mb 0.00 in0.0 mm 0.00 in0.0 mm 0.00 in0.0 mm
03:40 AM 67.1°F19.5°C 55.4°F13.0°C 66% 1.0 mph E1.6 kmh E 3.0 mph4.8 kmh 29.98 in1015.2 mb 0.00 in0.0 mm 0.00 in0.0 mm 0.00 in0.0 mm
03:30 AM 67.1°F19.5°C 54.9°F12.7°C 65% Calm Calm -- 29.97 in1014.9 mb 0.00 in0.0 mm 0.00 in0.0 mm 0.00 in0.0 mm
03:20 AM 67.2°F19.6°C 55.0°F12.8°C 65% 1.0 mph ENE1.6 kmh ENE 7.0 mph11.3 kmh 29.97 in1014.9 mb 0.00 in0.0 mm 0.00 in0.0 mm 0.00 in0.0 mm
03:10 AM 67.4°F19.7°C 54.8°F12.7°C 64% 5.0 mph E8.0 kmh E 6.0 mph9.7 kmh 29.97 in1014.9 mb 0.00 in0.0 mm 0.00 in0.0 mm 0.00 in0.0 mm
03:00 AM 67.5°F19.7°C 55.4°F13.0°C 65% 2.0 mph ENE3.2 kmh ENE 10.0 mph16.1 kmh 29.97 in1014.9 mb 0.00 in0.0 mm 0.00 in0.0 mm 0.00 in0.0 mm
02:50 AM 67.7°F19.8°C 55.1°F12.8°C 64% 2.0 mph E3.2 kmh E 8.0 mph12.9 kmh 29.97 in1014.9 mb 0.00 in0.0 mm 0.00 in0.0 mm 0.00 in0.0 mm
02:40 AM 67.9°F19.9°C 55.3°F12.9°C 64% 2.0 mph ENE3.2 kmh ENE 7.0 mph11.3 kmh 29.97 in1014.9 mb 0.00 in0.0 mm 0.00 in0.0 mm 0.00 in0.0 mm
02:30 AM 68.0°F20.0°C 54.9°F12.7°C 63% 2.0 mph NE3.2 kmh NE 5.0 mph8.0 kmh 29.97 in1014.9 mb 0.00 in0.0 mm 0.00 in0.0 mm 0.00 in0.0 mm
02:20 AM 68.2°F20.1°C 55.1°F12.8°C 63% 1.0 mph ENE1.6 kmh ENE 7.0 mph11.3 kmh 29.97 in1014.9 mb 0.00 in0.0 mm 0.00 in0.0 mm 0.00 in0.0 mm
02:10 AM 68.4°F20.2°C 55.7°F13.2°C 64% Calm Calm 5.0 mph8.0 kmh 29.97 in1014.9 mb 0.00 in0.0 mm 0.00 in0.0 mm 0.00 in0.0 mm
02:00 AM 68.3°F20.2°C 55.6°F13.1°C 64% 1.0 mph ENE1.6 kmh ENE 3.0 mph4.8 kmh 29.97 in1014.9 mb 0.00 in0.0 mm 0.00 in0.0 mm 0.00 in0.0 mm
01:50 AM 68.3°F20.2°C 56.1°F13.4°C 65% Calm Calm 3.0 mph4.8 kmh 29.98 in1015.2 mb 0.00 in0.0 mm 0.00 in0.0 mm 0.00 in0.0 mm
01:40 AM 68.3°F20.2°C 56.5°F13.6°C 66% 1.0 mph NE1.6 kmh NE 3.0 mph4.8 kmh 29.97 in1014.9 mb 0.00 in0.0 mm 0.00 in0.0 mm 0.00 in0.0 mm
01:30 AM 68.4°F20.2°C 57.4°F14.1°C 68% Calm Calm -- 29.97 in1014.9 mb 0.00 in0.0 mm 0.00 in0.0 mm 0.00 in0.0 mm
01:20 AM 68.5°F20.3°C 57.5°F14.2°C 68% Calm Calm -- 29.97 in1014.9 mb 0.00 in0.0 mm 0.00 in0.0 mm 0.00 in0.0 mm
01:10 AM 68.4°F20.2°C 57.4°F14.1°C 68% 1.0 mph NE1.6 kmh NE 5.0 mph8.0 kmh 29.97 in1014.9 mb 0.00 in0.0 mm 0.00 in0.0 mm 0.00 in0.0 mm
01:00 AM 68.3°F20.2°C 57.3°F14.1°C 68% 3.0 mph ENE4.8 kmh ENE 5.0 mph8.0 kmh 29.97 in1014.9 mb 0.00 in0.0 mm 0.00 in0.0 mm 0.00 in0.0 mm
12:50 AM 68.3°F20.2°C 57.7°F14.3°C 69% 2.0 mph E3.2 kmh E 3.0 mph4.8 kmh 29.97 in1014.9 mb 0.00 in0.0 mm 0.00 in0.0 mm 0.00 in0.0 mm
12:40 AM 68.4°F20.2°C 57.8°F14.3°C 69% Calm Calm 3.0 mph4.8 kmh 29.96 in1014.6 mb 0.00 in0.0 mm 0.00 in0.0 mm 0.00 in0.0 mm
12:30 AM 68.7°F20.4°C 57.7°F14.3°C 68% 1.0 mph NE1.6 kmh NE -- 29.96 in1014.6 mb 0.00 in0.0 mm 0.00 in0.0 mm 0.00 in0.0 mm
12:20 AM 68.9°F20.5°C 57.9°F14.4°C 68% Calm Calm 7.0 mph11.3 kmh 29.96 in1014.6 mb 0.00 in0.0 mm 0.00 in0.0 mm 0.00 in0.0 mm
12:10 AM 69.2°F20.7°C 58.2°F14.6°C 68% 3.0 mph NNE4.8 kmh NNE 7.0 mph11.3 kmh 29.96 in1014.6 mb 0.00 in0.0 mm 0.00 in0.0 mm 0.00 in0.0 mm
12:00 AM 69.5°F20.8°C 58.1°F14.5°C 67% 2.0 mph NE3.2 kmh NE 5.0 mph8.0 kmh 29.96 in1014.6 mb 0.00 in0.0 mm 0.00 in0.0 mm 0.00 in0.0 mm